createdAt,value
2019-05-09T00:02:28.176Z,9.10
2019-05-09T00:04:57.646Z,9.00
2019-05-09T00:07:29.761Z,9.00
2019-05-09T00:09:59.215Z,9.00
2019-05-09T00:12:28.811Z,9.00
2019-05-09T00:14:58.251Z,9.00
2019-05-09T00:17:27.703Z,9.00
2019-05-09T00:19:58.761Z,8.90
2019-05-09T00:22:28.212Z,8.90
2019-05-09T00:24:57.659Z,8.80
2019-05-09T00:27:27.148Z,8.80
2019-05-09T00:29:56.604Z,8.70
2019-05-09T00:32:27.702Z,8.80
2019-05-09T00:34:58.762Z,8.80
2019-05-09T00:37:29.852Z,8.70
2019-05-09T00:39:59.286Z,8.80
2019-05-09T00:42:28.738Z,8.70
2019-05-09T00:44:59.815Z,8.80
2019-05-09T00:47:29.751Z,8.80
2019-05-09T00:49:59.207Z,8.80
2019-05-09T00:52:28.624Z,8.70
2019-05-09T00:54:58.074Z,8.70
2019-05-09T00:57:29.161Z,8.70
2019-05-09T00:59:58.613Z,8.70
2019-05-09T01:02:28.063Z,8.70
2019-05-09T01:04:57.499Z,8.70
2019-05-09T01:07:26.973Z,8.70
2019-05-09T01:09:56.403Z,8.70
2019-05-09T01:12:27.420Z,8.70
2019-05-09T01:14:56.819Z,8.70
2019-05-09T01:17:26.293Z,8.70
2019-05-09T01:19:55.833Z,8.70
2019-05-09T01:22:25.261Z,8.70
2019-05-09T01:24:54.821Z,8.70
2019-05-09T01:27:26.949Z,8.70
2019-05-09T01:29:56.398Z,8.80
2019-05-09T01:32:27.463Z,8.80
2019-05-09T01:34:59.816Z,8.80
2019-05-09T01:37:29.276Z,8.90
2019-05-09T01:39:58.731Z,8.90
2019-05-09T01:42:28.161Z,8.90
2019-05-09T01:44:57.628Z,8.90
2019-05-09T01:47:27.073Z,8.90
2019-05-09T01:49:56.526Z,9.00
2019-05-09T01:52:25.955Z,9.00
2019-05-09T01:54:55.391Z,9.00
2019-05-09T01:57:24.913Z,9.00
2019-05-09T01:59:54.333Z,9.00
2019-05-09T02:02:23.788Z,9.00
2019-05-09T02:04:53.448Z,9.00
2019-05-09T02:07:27.323Z,9.00
2019-05-09T02:09:56.750Z,9.00
2019-05-09T02:12:26.205Z,8.90
2019-05-09T02:14:57.323Z,8.90
2019-05-09T02:17:28.379Z,8.90
2019-05-09T02:19:57.819Z,8.90
2019-05-09T02:22:28.904Z,8.90
2019-05-09T02:24:58.359Z,8.90
2019-05-09T02:27:27.813Z,8.90
2019-05-09T02:29:57.282Z,8.80
2019-05-09T02:32:26.717Z,8.80
2019-05-09T02:34:56.157Z,8.70
2019-05-09T02:37:28.640Z,8.70
2019-05-09T02:39:59.179Z,8.70
2019-05-09T02:42:28.250Z,8.60
2019-05-09T02:44:59.562Z,8.70
2019-05-09T02:47:29.260Z,8.70
2019-05-09T02:49:59.117Z,8.70
2019-05-09T02:52:28.906Z,8.60
2019-05-09T02:54:58.775Z,8.60
2019-05-09T02:57:29.330Z,8.60
2019-05-09T03:00:01.017Z,8.60
2019-05-09T03:02:32.269Z,8.60
2019-05-09T03:05:01.790Z,8.70
2019-05-09T03:07:32.841Z,8.70
2019-05-09T03:10:02.282Z,8.70
2019-05-09T03:12:35.540Z,8.70
2019-05-09T03:15:02.902Z,8.60
2019-05-09T03:17:32.328Z,8.60
2019-05-09T03:20:01.784Z,8.50
2019-05-09T03:22:31.499Z,8.50
2019-05-09T03:25:00.936Z,8.50
2019-05-09T03:27:32.007Z,8.50
2019-05-09T03:30:03.133Z,8.50
2019-05-09T03:32:32.543Z,8.40
2019-05-09T03:35:01.992Z,8.40
2019-05-09T03:37:31.430Z,8.40
2019-05-09T03:40:00.861Z,8.30
2019-05-09T03:42:41.099Z,8.30
2019-05-09T03:45:01.459Z,8.20
2019-05-09T03:47:35.148Z,8.30
2019-05-09T03:50:08.203Z,8.20
2019-05-09T03:52:37.968Z,8.20
2019-05-09T03:55:11.736Z,8.20
2019-05-09T03:57:42.837Z,8.20
2019-05-09T04:00:13.069Z,8.30
2019-05-09T04:02:42.506Z,8.30
2019-05-09T04:05:11.971Z,8.30
2019-05-09T04:07:41.421Z,8.30
2019-05-09T04:10:10.944Z,8.20
2019-05-09T04:12:52.757Z,8.30
2019-05-09T04:15:11.707Z,8.20
2019-05-09T04:17:42.863Z,8.20
2019-05-09T04:20:14.505Z,8.30
2019-05-09T04:22:44.224Z,8.30
2019-05-09T04:25:15.377Z,8.20
2019-05-09T04:27:48.019Z,8.20
2019-05-09T04:30:18.329Z,8.30
2019-05-09T04:32:48.252Z,8.30
2019-05-09T04:35:17.761Z,8.30
2019-05-09T04:37:48.276Z,8.30
2019-05-09T04:40:18.020Z,8.40
2019-05-09T04:42:47.580Z,8.50
2019-05-09T04:45:18.646Z,8.50
2019-05-09T04:50:24.896Z,8.60
2019-05-09T04:52:51.403Z,8.60
2019-05-09T04:55:22.514Z,8.70
2019-05-09T04:57:51.939Z,8.90
2019-05-09T05:00:23.016Z,9.00
2019-05-09T05:02:53.577Z,9.20
2019-05-09T05:05:23.023Z,9.30
2019-05-09T05:07:52.469Z,9.40
2019-05-09T05:10:21.927Z,9.50
2019-05-09T05:12:51.350Z,9.60
2019-05-09T05:15:20.822Z,9.60
2019-05-09T05:17:50.344Z,9.70
2019-05-09T05:20:21.453Z,9.80
2019-05-09T05:22:52.557Z,10.00
2019-05-09T05:25:21.988Z,10.10
2019-05-09T05:27:51.433Z,10.40
2019-05-09T05:30:20.885Z,10.50
2019-05-09T05:32:51.995Z,10.70
2019-05-09T05:35:23.178Z,11.00
2019-05-09T05:37:52.643Z,12.20
2019-05-09T05:40:22.166Z,14.00
2019-05-09T05:42:51.604Z,15.50
2019-05-09T05:45:21.059Z,17.10
2019-05-09T05:47:52.150Z,18.50
2019-05-09T05:50:21.599Z,19.50
2019-05-09T05:52:51.066Z,20.50
2019-05-09T05:55:20.524Z,21.30
2019-05-09T05:57:49.972Z,21.80
2019-05-09T06:00:23.084Z,22.00
2019-05-09T06:02:52.534Z,22.70
2019-05-09T06:05:21.981Z,23.50
2019-05-09T06:07:51.449Z,23.60
2019-05-09T06:10:21.877Z,23.90
2019-05-09T06:12:51.313Z,24.10
2019-05-09T06:15:20.771Z,25.00
2019-05-09T06:17:50.238Z,25.50
2019-05-09T06:20:19.863Z,25.40
2019-05-09T06:22:49.322Z,25.50
2019-05-09T06:25:20.687Z,25.90
2019-05-09T06:27:49.916Z,26.50
2019-05-09T06:30:24.073Z,26.80
2019-05-09T06:32:53.518Z,26.50
2019-05-09T06:35:24.941Z,27.00
2019-05-09T06:37:54.442Z,27.20
2019-05-09T06:40:25.315Z,27.70
2019-05-09T06:42:55.086Z,28.00
2019-05-09T06:45:27.301Z,28.30
2019-05-09T06:47:58.317Z,28.90
2019-05-09T06:50:28.001Z,28.80
2019-05-09T06:52:57.440Z,28.70
2019-05-09T06:55:27.658Z,28.70
2019-05-09T06:57:58.452Z,28.90
2019-05-09T07:00:35.118Z,29.40
2019-05-09T07:03:08.093Z,29.50
2019-05-09T07:05:39.399Z,29.20
2019-05-09T07:08:10.470Z,29.40
2019-05-09T07:10:39.900Z,29.70
2019-05-09T07:13:09.361Z,29.50
2019-05-09T07:15:38.810Z,29.10
2019-05-09T07:18:08.328Z,28.90
2019-05-09T07:20:37.980Z,29.50
2019-05-09T07:23:08.989Z,29.80
2019-05-09T07:25:40.344Z,29.90
2019-05-09T07:28:09.769Z,29.90
2019-05-09T07:30:40.845Z,29.90
2019-05-09T07:33:11.916Z,30.20
2019-05-09T07:35:41.357Z,31.10
2019-05-09T07:38:10.797Z,31.40
2019-05-09T07:40:40.222Z,31.70
2019-05-09T07:43:09.698Z,32.50
2019-05-09T07:45:40.755Z,31.20
2019-05-09T07:48:10.197Z,28.90
2019-05-09T07:50:39.687Z,28.70
2019-05-09T07:53:09.155Z,29.50
2019-05-09T07:55:38.556Z,29.20
2019-05-09T07:58:08.327Z,28.30
2019-05-09T08:00:38.623Z,27.80
2019-05-09T08:03:12.576Z,27.20
2019-05-09T08:05:39.464Z,26.90
2019-05-09T08:08:13.625Z,25.70
2019-05-09T08:10:44.483Z,25.20
2019-05-09T08:13:22.371Z,25.40
2019-05-09T08:15:51.813Z,26.30
2019-05-09T08:18:21.245Z,27.60
2019-05-09T08:20:50.691Z,28.80
2019-05-09T08:23:20.152Z,29.60
2019-05-09T08:25:49.759Z,29.60
2019-05-09T08:28:20.131Z,29.70
2019-05-09T08:30:49.720Z,30.20
2019-05-09T08:33:19.238Z,31.20
2019-05-09T08:35:52.308Z,31.60
2019-05-09T08:38:19.871Z,31.70
2019-05-09T08:40:50.981Z,31.30
2019-05-09T08:43:20.409Z,30.90
2019-05-09T08:45:49.864Z,31.10
2019-05-09T08:48:19.322Z,31.40
2019-05-09T08:50:50.394Z,31.50
2019-05-09T08:53:19.851Z,31.30
2019-05-09T08:55:49.294Z,29.30
2019-05-09T08:58:19.938Z,28.60
2019-05-09T09:00:49.557Z,27.30
2019-05-09T09:03:19.024Z,25.80
2019-05-09T09:05:48.732Z,24.70
2019-05-09T09:08:18.559Z,23.50
2019-05-09T09:10:48.763Z,23.40
2019-05-09T09:13:18.574Z,23.30
2019-05-09T09:16:05.719Z,23.10
2019-05-09T09:18:19.237Z,23.30
2019-05-09T09:20:48.780Z,23.20
2019-05-09T09:23:18.309Z,23.00
2019-05-09T09:25:48.667Z,22.40
2019-05-09T09:28:18.483Z,21.70
2019-05-09T09:30:48.589Z,21.20
2019-05-09T09:33:18.167Z,20.90
2019-05-09T09:38:23.564Z,21.10
2019-05-09T09:40:52.993Z,21.20
2019-05-09T09:43:22.438Z,20.80
2019-05-09T09:46:06.249Z,20.60
2019-05-09T09:48:23.099Z,20.30
2019-05-09T09:50:52.527Z,20.60
2019-05-09T09:53:22.012Z,20.40
2019-05-09T09:55:51.463Z,20.20
2019-05-09T09:58:20.924Z,20.40
2019-05-09T10:00:52.087Z,20.70
2019-05-09T10:03:21.600Z,21.00
2019-05-09T10:05:51.089Z,20.90
2019-05-09T10:08:20.691Z,20.80
2019-05-09T10:10:50.170Z,20.90
2019-05-09T10:13:19.645Z,20.80
2019-05-09T10:15:50.751Z,20.90
2019-05-09T10:18:21.850Z,21.00
2019-05-09T10:20:52.943Z,21.00
2019-05-09T10:23:22.370Z,20.70
2019-05-09T10:25:51.834Z,20.80
2019-05-09T10:28:21.828Z,20.90
2019-05-09T10:30:51.467Z,21.00
2019-05-09T10:33:20.985Z,21.10
2019-05-09T10:35:50.482Z,21.10
2019-05-09T10:38:19.902Z,21.30
2019-05-09T10:40:53.027Z,21.30
2019-05-09T10:43:34.673Z,21.40
2019-05-09T10:45:57.670Z,21.60
2019-05-09T10:48:28.293Z,21.70
2019-05-09T10:51:04.639Z,21.40
2019-05-09T10:53:28.793Z,21.20
2019-05-09T10:55:58.247Z,21.10
2019-05-09T10:58:28.065Z,21.00
2019-05-09T11:00:58.758Z,20.90
2019-05-09T11:03:28.450Z,20.90
2019-05-09T11:05:58.067Z,20.80
2019-05-09T11:08:28.624Z,20.50
2019-05-09T11:10:58.357Z,20.00
2019-05-09T11:13:28.756Z,20.10
2019-05-09T11:15:58.514Z,20.20
2019-05-09T11:18:28.718Z,20.10
2019-05-09T11:20:58.299Z,20.20
2019-05-09T11:23:29.182Z,20.20
2019-05-09T11:25:58.773Z,20.20
2019-05-09T11:28:28.649Z,20.10
2019-05-09T11:30:58.479Z,20.10
2019-05-09T11:33:28.087Z,20.20
2019-05-09T11:35:58.098Z,20.30
2019-05-09T11:38:34.945Z,20.10
2019-05-09T11:40:58.867Z,20.10
2019-05-09T11:43:29.933Z,20.10
2019-05-09T11:45:59.596Z,20.00
2019-05-09T11:48:29.290Z,20.00
2019-05-09T11:50:59.082Z,20.00
2019-05-09T11:53:28.918Z,20.10
2019-05-09T11:55:58.529Z,20.10
2019-05-09T11:58:28.131Z,20.20
2019-05-09T12:00:57.616Z,20.00
2019-05-09T12:03:27.245Z,19.90
2019-05-09T12:05:58.331Z,19.90
2019-05-09T12:08:27.833Z,19.80
2019-05-09T12:10:59.966Z,19.80
2019-05-09T12:13:29.392Z,19.80
2019-05-09T12:15:58.872Z,19.90
2019-05-09T12:18:28.698Z,19.90
2019-05-09T12:20:58.220Z,19.90
2019-05-09T12:23:29.169Z,19.80
2019-05-09T12:25:58.767Z,19.70
2019-05-09T12:28:28.249Z,19.60
2019-05-09T12:30:57.687Z,19.40
2019-05-09T12:33:28.796Z,19.30
2019-05-09T12:35:59.378Z,19.30
2019-05-09T12:38:32.026Z,19.30
2019-05-09T12:41:01.459Z,19.30
2019-05-09T12:43:30.899Z,19.30
2019-05-09T12:46:00.333Z,19.30
2019-05-09T12:48:29.804Z,19.40
2019-05-09T12:50:59.243Z,19.40
2019-05-09T12:53:28.678Z,19.30
2019-05-09T12:55:59.814Z,19.20
2019-05-09T12:58:32.907Z,19.20
2019-05-09T13:01:02.357Z,19.20
2019-05-09T13:03:31.810Z,19.20
2019-05-09T13:06:01.317Z,19.10
2019-05-09T13:08:30.763Z,19.00
2019-05-09T13:11:02.430Z,19.10
2019-05-09T13:13:32.323Z,19.00
2019-05-09T13:16:03.483Z,19.00
2019-05-09T13:18:34.585Z,19.10
2019-05-09T13:21:04.086Z,19.10
2019-05-09T13:23:33.573Z,19.10
2019-05-09T13:26:03.227Z,19.10
2019-05-09T13:28:32.700Z,19.10
2019-05-09T13:31:02.151Z,19.00
2019-05-09T13:33:31.663Z,19.00
2019-05-09T13:36:01.133Z,18.80
2019-05-09T13:38:30.583Z,18.70
2019-05-09T13:41:00.039Z,18.60
2019-05-09T13:43:29.479Z,18.50
2019-05-09T13:45:58.945Z,18.50
2019-05-09T13:48:56.232Z,18.40
2019-05-09T13:50:59.537Z,18.40
2019-05-09T13:53:28.993Z,18.40
2019-05-09T13:55:58.526Z,18.40
2019-05-09T13:58:28.465Z,18.30
2019-05-09T14:01:02.368Z,18.20
2019-05-09T14:03:29.100Z,18.20
2019-05-09T14:05:58.744Z,18.20
2019-05-09T14:08:28.664Z,18.00
2019-05-09T14:10:58.443Z,17.90
2019-05-09T14:13:28.009Z,17.90
2019-05-09T14:15:57.715Z,17.80
2019-05-09T14:18:27.123Z,17.80
2019-05-09T14:20:57.430Z,17.80
2019-05-09T14:23:35.899Z,17.80
2019-05-09T14:25:59.004Z,17.80
2019-05-09T14:28:28.817Z,17.80
2019-05-09T14:30:59.439Z,17.80
2019-05-09T14:33:29.649Z,17.90
2019-05-09T14:35:59.492Z,18.00
2019-05-09T14:38:29.003Z,18.10
2019-05-09T14:40:59.530Z,18.20
2019-05-09T14:43:29.085Z,18.20
2019-05-09T14:46:02.708Z,18.20
2019-05-09T14:48:32.243Z,18.30
2019-05-09T14:51:01.685Z,18.40
2019-05-09T14:53:31.130Z,18.50
2019-05-09T14:56:00.654Z,18.60
2019-05-09T14:58:30.095Z,18.60
2019-05-09T15:01:00.892Z,18.50
2019-05-09T15:03:33.568Z,18.30
2019-05-09T15:06:03.038Z,18.30
2019-05-09T15:08:32.481Z,18.20
2019-05-09T15:11:02.471Z,18.20
2019-05-09T15:13:31.931Z,18.20
2019-05-09T15:16:01.389Z,18.00
2019-05-09T15:18:30.830Z,17.80
2019-05-09T15:21:00.313Z,17.60
2019-05-09T15:23:31.415Z,17.50
2019-05-09T15:26:00.869Z,17.40
2019-05-09T15:28:31.942Z,17.30
2019-05-09T15:31:01.402Z,17.30
2019-05-09T15:33:30.870Z,17.20
2019-05-09T15:36:00.313Z,17.10
2019-05-09T15:38:29.752Z,17.00
2019-05-09T15:40:59.222Z,16.90
2019-05-09T15:43:28.684Z,16.90
2019-05-09T15:45:59.789Z,17.00
2019-05-09T15:48:29.311Z,17.00
2019-05-09T15:50:58.759Z,17.10
2019-05-09T15:53:28.220Z,17.30
2019-05-09T15:55:58.778Z,17.40
2019-05-09T15:58:28.797Z,17.50
2019-05-09T16:00:58.896Z,17.70
2019-05-09T16:03:28.582Z,17.80
2019-05-09T16:05:58.564Z,17.90
2019-05-09T16:08:28.936Z,17.90
2019-05-09T16:10:58.479Z,17.80
2019-05-09T16:13:28.582Z,17.60
2019-05-09T16:15:58.060Z,17.40
2019-05-09T16:18:29.140Z,17.40
2019-05-09T16:20:58.605Z,17.40
2019-05-09T16:23:29.051Z,17.30
2019-05-09T16:25:58.839Z,17.30
2019-05-09T16:28:28.239Z,17.20
2019-05-09T16:30:58.545Z,17.20
2019-05-09T16:33:28.059Z,17.20
2019-05-09T16:35:57.490Z,17.10
2019-05-09T16:38:41.248Z,17.10
2019-05-09T16:40:58.307Z,17.00
2019-05-09T16:43:28.032Z,17.00
2019-05-09T16:45:58.091Z,16.90
2019-05-09T16:48:27.828Z,16.90
2019-05-09T16:51:03.232Z,16.80
2019-05-09T16:53:28.435Z,16.70
2019-05-09T16:55:58.644Z,16.60
2019-05-09T16:58:28.089Z,16.60
2019-05-09T17:00:57.523Z,16.50
2019-05-09T17:03:28.396Z,16.40
2019-05-09T17:05:58.384Z,16.40
2019-05-09T17:08:28.388Z,16.30
2019-05-09T17:10:58.716Z,16.30
2019-05-09T17:13:29.030Z,16.40
2019-05-09T17:15:58.707Z,16.30
2019-05-09T17:18:28.558Z,16.40
2019-05-09T17:21:14.719Z,16.40
2019-05-09T17:23:31.395Z,16.50
2019-05-09T17:26:03.641Z,16.50
2019-05-09T17:28:33.161Z,16.60
2019-05-09T17:31:02.620Z,16.50
2019-05-09T17:33:32.067Z,16.30
2019-05-09T17:36:01.523Z,16.20
2019-05-09T17:38:30.984Z,16.00
2019-05-09T17:41:00.495Z,15.90
2019-05-09T17:43:29.944Z,15.90
2019-05-09T17:45:59.402Z,15.70
2019-05-09T17:48:29.118Z,15.60
2019-05-09T17:50:58.555Z,15.50
2019-05-09T17:53:29.361Z,15.40
2019-05-09T17:55:59.231Z,15.30
2019-05-09T17:58:33.014Z,15.20
2019-05-09T18:00:59.873Z,15.30
2019-05-09T18:03:29.419Z,15.20
2019-05-09T18:05:58.837Z,15.20
2019-05-09T18:08:28.552Z,15.20
2019-05-09T18:10:58.556Z,15.10
2019-05-09T18:13:30.281Z,15.10
2019-05-09T18:15:59.427Z,15.00
2019-05-09T18:18:28.905Z,14.80
2019-05-09T18:20:58.336Z,14.80
2019-05-09T18:23:28.461Z,14.70
2019-05-09T18:25:58.742Z,14.60
2019-05-09T18:28:29.260Z,14.50
2019-05-09T18:30:58.844Z,14.40
2019-05-09T18:33:29.988Z,14.40
2019-05-09T18:35:59.434Z,14.30
2019-05-09T18:38:33.119Z,14.30
2019-05-09T18:41:06.447Z,14.30
2019-05-09T18:43:34.294Z,14.30
2019-05-09T18:46:03.876Z,14.20
2019-05-09T18:48:33.345Z,14.20
2019-05-09T18:51:02.778Z,14.10
2019-05-09T18:53:32.245Z,14.00
2019-05-09T18:56:01.692Z,14.00
2019-05-09T18:58:31.117Z,14.00
2019-05-09T19:01:00.586Z,13.80
2019-05-09T19:03:30.025Z,13.80
2019-05-09T19:05:59.486Z,13.60
2019-05-09T19:08:28.938Z,13.60
2019-05-09T19:10:58.410Z,13.50
2019-05-09T19:13:27.876Z,13.40
2019-05-09T19:15:59.032Z,13.30
2019-05-09T19:18:30.074Z,13.30
2019-05-09T19:21:01.173Z,13.20
2019-05-09T19:23:30.630Z,13.20
2019-05-09T19:26:01.750Z,13.10
2019-05-09T19:28:31.201Z,13.00
2019-05-09T19:31:00.641Z,12.90
2019-05-09T19:33:30.103Z,12.90
2019-05-09T19:35:59.566Z,12.80
2019-05-09T19:38:29.770Z,12.80
2019-05-09T19:40:59.335Z,12.90
2019-05-09T19:43:28.792Z,12.80
2019-05-09T19:45:58.256Z,12.90
2019-05-09T19:48:27.728Z,12.90
2019-05-09T19:50:57.160Z,12.90
2019-05-09T19:53:26.629Z,12.90
2019-05-09T19:55:56.095Z,12.80
2019-05-09T19:58:25.554Z,12.80
2019-05-09T20:00:54.991Z,12.80
2019-05-09T20:03:24.472Z,12.80
2019-05-09T20:05:53.899Z,12.80
2019-05-09T20:08:23.524Z,12.80
2019-05-09T20:10:54.645Z,12.90
2019-05-09T20:13:25.742Z,12.90
2019-05-09T20:15:55.213Z,12.90
2019-05-09T20:18:24.668Z,12.80
2019-05-09T20:20:54.167Z,12.90
2019-05-09T20:23:23.593Z,13.00
2019-05-09T20:25:53.100Z,13.00
2019-05-09T20:28:23.116Z,13.00
2019-05-09T20:30:52.558Z,13.10
2019-05-09T20:33:22.010Z,13.10
2019-05-09T20:35:51.436Z,13.10
2019-05-09T20:38:21.097Z,13.10
2019-05-09T20:40:50.712Z,13.10
2019-05-09T20:43:20.373Z,13.10
2019-05-09T20:45:50.016Z,13.00
2019-05-09T20:48:19.634Z,12.80
2019-05-09T20:50:49.289Z,12.80
2019-05-09T20:53:18.907Z,12.80
2019-05-09T20:55:48.538Z,12.80
2019-05-09T20:58:18.191Z,12.80
2019-05-09T21:00:47.840Z,12.80
2019-05-09T21:03:17.458Z,12.80
2019-05-09T21:05:47.091Z,12.90
2019-05-09T21:08:16.742Z,12.80
2019-05-09T21:10:46.366Z,12.70
2019-05-09T21:13:15.997Z,12.70
2019-05-09T21:15:45.619Z,12.70
2019-05-09T21:18:15.428Z,12.70
2019-05-09T21:20:45.141Z,12.70
2019-05-09T21:23:24.201Z,12.60
2019-05-09T21:25:46.306Z,12.50
2019-05-09T21:28:16.001Z,12.50
2019-05-09T21:30:46.118Z,12.40
2019-05-09T21:33:15.696Z,12.30
2019-05-09T21:35:45.146Z,12.20
2019-05-09T21:38:14.615Z,12.10
2019-05-09T21:40:44.768Z,12.10
2019-05-09T21:43:14.215Z,12.00
2019-05-09T21:45:43.913Z,12.00
2019-05-09T21:48:13.379Z,12.00
2019-05-09T21:50:42.824Z,11.90
2019-05-09T21:53:12.273Z,11.80
2019-05-09T21:55:41.714Z,11.60
2019-05-09T21:58:11.172Z,11.60
2019-05-09T22:00:43.229Z,11.50
2019-05-09T22:03:12.667Z,11.40
2019-05-09T22:05:42.109Z,11.40
2019-05-09T22:08:11.649Z,11.40
2019-05-09T22:10:41.230Z,11.40
2019-05-09T22:13:10.685Z,11.30
2019-05-09T22:15:40.226Z,11.40
2019-05-09T22:18:09.693Z,11.40
2019-05-09T22:20:39.154Z,11.40
2019-05-09T22:23:08.623Z,11.40
2019-05-09T22:25:38.060Z,11.30
2019-05-09T22:28:07.529Z,11.30
2019-05-09T22:30:36.966Z,11.30
2019-05-09T22:33:06.441Z,11.30
2019-05-09T22:35:35.867Z,11.20
2019-05-09T22:38:06.182Z,11.20
2019-05-09T22:40:35.614Z,11.10
2019-05-09T22:43:05.321Z,11.10
2019-05-09T22:45:34.767Z,11.10
2019-05-09T22:48:04.267Z,11.00
2019-05-09T22:50:33.754Z,10.90
2019-05-09T22:53:03.188Z,10.90
2019-05-09T22:55:32.627Z,10.90
2019-05-09T22:58:02.109Z,10.80
2019-05-09T23:00:31.547Z,10.80
2019-05-09T23:03:00.989Z,10.90
2019-05-09T23:05:30.423Z,10.80
2019-05-09T23:07:59.861Z,10.90
2019-05-09T23:10:29.395Z,10.90
2019-05-09T23:12:58.832Z,10.80
2019-05-09T23:15:28.292Z,10.70
2019-05-09T23:17:57.892Z,10.70
2019-05-09T23:20:29.018Z,10.70
2019-05-09T23:23:00.133Z,10.70
2019-05-09T23:25:29.604Z,10.60
2019-05-09T23:27:59.049Z,10.50
2019-05-09T23:30:28.486Z,10.40
2019-05-09T23:32:57.923Z,10.50
2019-05-09T23:35:27.388Z,10.50
2019-05-09T23:37:56.901Z,10.50
2019-05-09T23:40:26.374Z,10.50
2019-05-09T23:42:55.842Z,10.50
2019-05-09T23:45:25.272Z,10.40
2019-05-09T23:47:54.722Z,10.50
2019-05-09T23:50:24.188Z,10.30
2019-05-09T23:52:53.648Z,10.30
2019-05-09T23:55:24.751Z,10.30
2019-05-09T23:57:55.842Z,10.30
